Time;durP1;ratioP1;P1;durP2;ratioP2;P2;SDS_P1;SDS_P2;PMS_P1;PMS_P2;Temp;Humidity;BMP_temperature;BMP_pressure;BME280_temperature;BME280_humidity;BME280_pressure;Samples;Min_cycle;Max_cycle;Signal;HPM_P1;HPM_P2
2022/04/24 00:01:20;;;;;;;10.30;10.00;;;10.20;99.90;;;;;;4998529;28;20241;-83
2022/04/24 00:03:49;;;;;;;10.40;10.10;;;10.20;99.90;;;;;;4998494;28;20228;-83
2022/04/24 00:06:16;;;;;;;10.43;10.13;;;10.10;99.90;;;;;;4999468;28;20271;-82
2022/04/24 00:08:44;;;;;;;10.40;10.10;;;10.10;99.90;;;;;;5003653;28;20237;-82
2022/04/24 00:11:12;;;;;;;10.23;9.93;;;10.00;99.90;;;;;;5011944;28;20244;-83
2022/04/24 00:13:41;;;;;;;10.60;10.30;;;10.00;99.90;;;;;;5003416;28;20241;-83
2022/04/24 00:16:10;;;;;;;10.67;10.37;;;10.00;99.90;;;;;;5003850;28;20240;-82
2022/04/24 00:18:39;;;;;;;10.47;10.17;;;10.00;99.90;;;;;;5003612;28;20735;-82
2022/04/24 00:21:08;;;;;;;10.70;10.40;;;10.10;99.90;;;;;;5002315;28;20272;-82
2022/04/24 00:23:36;;;;;;;10.50;10.20;;;10.10;99.90;;;;;;5001218;28;20296;-83
2022/04/24 00:26:04;;;;;;;10.30;10.00;;;10.10;99.90;;;;;;5001332;28;20233;-82
2022/04/24 00:28:31;;;;;;;10.70;10.40;;;10.10;99.90;;;;;;5000968;28;20240;-81
2022/04/24 00:30:59;;;;;;;10.37;10.07;;;10.10;99.90;;;;;;5000609;28;20291;-82
2022/04/24 00:33:27;;;;;;;10.50;10.20;;;10.10;99.90;;;;;;5000601;28;20225;-82
2022/04/24 00:35:55;;;;;;;10.50;10.20;;;10.00;99.90;;;;;;4999465;28;20228;-82
2022/04/24 00:38:24;;;;;;;10.40;10.10;;;9.90;99.90;;;;;;4999871;28;20253;-82
2022/04/24 00:40:54;;;;;;;10.67;10.37;;;9.90;99.90;;;;;;4999750;28;20237;-82
2022/04/24 00:43:21;;;;;;;10.60;10.30;;;9.90;99.90;;;;;;4999663;28;20233;-82
2022/04/24 00:45:50;;;;;;;10.70;10.40;;;9.80;99.90;;;;;;4999760;28;20232;-82
2022/04/24 00:48:18;;;;;;;10.50;10.20;;;9.80;99.90;;;;;;4998903;28;20283;-82
2022/04/24 00:50:46;;;;;;;10.30;10.00;;;9.80;99.90;;;;;;5000031;28;20241;-81
2022/04/24 00:53:14;;;;;;;10.67;10.37;;;9.80;99.90;;;;;;5000042;28;20319;-82
2022/04/24 00:55:44;;;;;;;10.85;10.55;;;9.80;99.90;;;;;;4999087;28;20427;-81
2022/04/24 00:58:17;;;;;;;10.50;10.20;;;9.80;99.90;;;;;;5059071;22;20293;-88
2022/04/24 01:00:46;;;;;;;10.60;10.30;;;9.80;99.90;;;;;;5041462;28;20329;-86
2022/04/24 01:03:15;;;;;;;10.73;10.43;;;9.80;99.90;;;;;;5041224;28;20226;-88
2022/04/24 01:05:44;;;;;;;10.60;10.30;;;9.80;99.90;;;;;;5041396;28;20245;-85
2022/04/24 01:08:14;;;;;;;10.50;10.20;;;9.70;99.90;;;;;;5041471;28;20318;-85
2022/04/24 01:13:30;;;;;;;10.57;10.27;;;9.80;99.90;;;;;;5041082;28;20231;-87
2022/04/24 01:16:00;;;;;;;10.57;10.27;;;9.70;99.90;;;;;;5040901;28;20250;-86
2022/04/24 01:18:29;;;;;;;10.50;10.20;;;9.70;99.90;;;;;;5040562;28;20255;-86
2022/04/24 01:21:18;;;;;;;10.70;10.40;;;9.70;99.90;;;;;;5040851;28;20382;-86
2022/04/24 01:23:47;;;;;;;10.70;10.40;;;9.70;99.90;;;;;;5040929;28;20271;-86
2022/04/24 01:26:19;;;;;;;10.40;10.10;;;9.70;99.90;;;;;;5040413;28;20231;-83
2022/04/24 01:28:47;;;;;;;10.43;10.13;;;9.70;99.90;;;;;;5042898;28;20322;-87
2022/04/24 01:31:15;;;;;;;10.60;10.30;;;9.70;99.90;;;;;;5043487;28;20234;-87
2022/04/24 01:33:45;;;;;;;10.50;10.20;;;9.70;99.90;;;;;;5029096;28;20279;-86
2022/04/24 01:36:24;;;;;;;10.53;10.23;;;9.70;99.90;;;;;;5043383;28;20330;-86
2022/04/24 01:38:53;;;;;;;10.60;10.30;;;9.60;99.90;;;;;;5043661;28;20711;-86
2022/04/24 01:41:23;;;;;;;10.70;10.40;;;9.60;99.90;;;;;;5042846;28;20293;-86
2022/04/24 01:43:52;;;;;;;10.73;10.43;;;9.60;99.90;;;;;;5044341;28;20228;-87
2022/04/24 01:46:21;;;;;;;10.87;10.57;;;9.60;99.90;;;;;;5040793;28;20231;-87
2022/04/24 01:48:51;;;;;;;10.67;10.37;;;9.60;99.90;;;;;;5040798;28;20334;-85
2022/04/24 01:51:29;;;;;;;10.60;10.30;;;9.60;99.90;;;;;;5040621;28;20226;-87
2022/04/24 01:53:58;;;;;;;10.87;10.57;;;9.60;99.90;;;;;;5020429;28;20224;-86
2022/04/24 01:56:27;;;;;;;10.80;10.50;;;9.60;99.90;;;;;;5019958;28;20240;-87
2022/04/24 01:58:57;;;;;;;10.73;10.43;;;9.60;99.90;;;;;;5020863;28;20304;-87
2022/04/24 02:01:26;;;;;;;10.67;10.37;;;9.60;99.90;;;;;;5023575;28;20236;-87
2022/04/24 02:03:56;;;;;;;10.70;10.40;;;9.60;99.90;;;;;;5023630;28;20220;-87
2022/04/24 02:06:28;;;;;;;10.77;10.47;;;9.60;99.90;;;;;;5023638;28;20318;-87
2022/04/24 02:08:56;;;;;;;10.63;10.33;;;9.60;99.90;;;;;;5023686;28;20227;-87
2022/04/24 02:11:24;;;;;;;10.40;10.10;;;9.60;99.90;;;;;;5039470;28;20235;-86
2022/04/24 02:13:53;;;;;;;10.53;10.23;;;9.60;99.90;;;;;;5042908;28;20227;-86
2022/04/24 02:16:23;;;;;;;10.40;10.10;;;9.60;99.90;;;;;;5042748;28;20239;-88
2022/04/24 02:18:52;;;;;;;10.97;10.67;;;9.70;99.90;;;;;;5043576;28;20239;-87
2022/04/24 02:21:22;;;;;;;10.67;10.37;;;9.60;99.90;;;;;;5043026;28;20259;-87
2022/04/24 02:24:00;;;;;;;10.50;10.20;;;9.70;99.90;;;;;;5042864;28;20231;-86
2022/04/24 02:26:30;;;;;;;10.67;10.37;;;9.80;99.90;;;;;;5042930;28;20247;-85
2022/04/24 02:28:59;;;;;;;10.80;10.50;;;9.80;99.90;;;;;;5043051;28;20236;-87
2022/04/24 02:31:29;;;;;;;10.80;10.50;;;9.80;99.90;;;;;;5042822;28;20242;-86
2022/04/24 02:33:58;;;;;;;10.67;10.37;;;9.80;99.90;;;;;;5043128;28;20231;-87
2022/04/24 02:36:27;;;;;;;10.70;10.40;;;9.70;99.90;;;;;;5042566;28;20247;-87
2022/04/24 02:39:06;;;;;;;10.63;10.33;;;9.80;99.90;;;;;;5042712;28;20235;-87
2022/04/24 02:41:43;;;;;;;10.90;10.60;;;9.80;99.90;;;;;;5042460;28;20238;-87
2022/04/24 02:44:17;;;;;;;10.83;10.53;;;9.80;99.90;;;;;;5042931;28;20215;-87
2022/04/24 02:47:01;;;;;;;10.70;10.40;;;9.80;99.90;;;;;;5041744;28;20238;-87
2022/04/24 02:49:32;;;;;;;10.57;10.27;;;9.80;99.90;;;;;;5043023;28;20239;-87
2022/04/24 02:52:00;;;;;;;10.70;10.40;;;9.80;99.90;;;;;;5042863;28;20269;-87
2022/04/24 02:54:40;;;;;;;10.60;10.30;;;9.80;99.90;;;;;;5053334;28;20303;-87
2022/04/24 02:57:08;;;;;;;10.40;10.10;;;9.90;99.90;;;;;;5056036;28;20247;-87
2022/04/24 02:59:36;;;;;;;10.40;10.10;;;9.90;99.90;;;;;;5049685;28;20239;-87
2022/04/24 03:02:05;;;;;;;10.67;10.37;;;9.90;99.90;;;;;;5042325;28;20250;-86
2022/04/24 03:04:35;;;;;;;10.60;10.30;;;9.90;99.90;;;;;;5042443;28;20235;-86
2022/04/24 03:07:04;;;;;;;10.53;10.23;;;9.80;99.90;;;;;;5042393;28;20373;-86
2022/04/24 03:09:37;;;;;;;10.80;10.50;;;9.80;99.90;;;;;;5042312;28;20237;-87
2022/04/24 03:12:06;;;;;;;10.70;10.40;;;9.80;99.90;;;;;;5042178;28;20231;-87
2022/04/24 03:14:34;;;;;;;10.50;10.20;;;9.80;99.90;;;;;;5042035;28;20224;-87
2022/04/24 03:17:02;;;;;;;10.70;10.40;;;9.80;99.90;;;;;;5041324;28;20239;-87
2022/04/24 03:19:37;;;;;;;10.83;10.53;;;9.80;99.90;;;;;;5041531;28;20246;-86
2022/04/24 03:22:06;;;;;;;10.90;10.60;;;9.70;99.90;;;;;;5042378;28;20245;-85
2022/04/24 03:24:45;;;;;;;10.77;10.47;;;9.70;99.90;;;;;;5041843;28;20335;-87
2022/04/24 03:27:13;;;;;;;10.50;10.20;;;9.70;99.90;;;;;;5041718;28;20231;-85
2022/04/24 03:29:41;;;;;;;10.53;10.23;;;9.70;99.90;;;;;;5042216;28;20228;-87
2022/04/24 03:32:10;;;;;;;10.70;10.40;;;9.70;99.90;;;;;;5041032;28;20235;-86
2022/04/24 03:34:39;;;;;;;10.60;10.30;;;9.70;99.90;;;;;;5041263;28;20226;-87
2022/04/24 03:37:08;;;;;;;10.70;10.40;;;9.70;99.90;;;;;;5041036;28;20252;-87
2022/04/24 03:39:46;;;;;;;10.70;10.40;;;9.70;99.90;;;;;;5040922;28;20232;-87
2022/04/24 03:42:17;;;;;;;10.80;10.50;;;9.70;99.90;;;;;;5041666;28;20215;-87
2022/04/24 03:44:45;;;;;;;10.60;10.30;;;9.70;99.90;;;;;;5041325;28;20224;-87
2022/04/24 03:47:15;;;;;;;10.70;10.40;;;9.70;99.90;;;;;;5041855;28;20240;-86
2022/04/24 03:49:44;;;;;;;10.60;10.30;;;9.80;99.90;;;;;;5041160;28;20770;-86
2022/04/24 03:52:14;;;;;;;10.40;10.10;;;9.80;99.90;;;;;;5040714;28;20238;-86
2022/04/24 03:54:52;;;;;;;10.60;10.30;;;9.80;99.90;;;;;;5041251;28;20297;-87
2022/04/24 03:57:22;;;;;;;10.73;10.43;;;9.80;99.90;;;;;;5041299;28;20247;-86
2022/04/24 03:59:51;;;;;;;10.53;10.23;;;9.80;99.90;;;;;;5042158;28;20246;-87
2022/04/24 04:02:20;;;;;;;10.60;10.30;;;9.80;99.90;;;;;;5041095;28;20258;-86
2022/04/24 04:04:50;;;;;;;10.50;10.20;;;9.80;99.90;;;;;;5041301;28;20227;-86
2022/04/24 04:07:19;;;;;;;10.67;10.37;;;9.80;99.90;;;;;;5043577;28;20326;-85
2022/04/24 04:12:35;;;;;;;11.00;10.70;;;9.80;99.90;;;;;;5042079;28;20255;-86
2022/04/24 04:15:08;;;;;;;10.63;10.33;;;9.80;99.90;;;;;;5041934;28;20290;-87
2022/04/24 04:17:36;;;;;;;10.60;10.30;;;9.80;99.90;;;;;;5041147;28;20793;-87
2022/04/24 04:20:09;;;;;;;10.93;10.63;;;9.80;99.90;;;;;;5041660;28;20224;-86
2022/04/24 04:25:38;;;;;;;11.03;10.73;;;9.70;99.90;;;;;;5041575;28;20219;-86
2022/04/24 04:28:10;;;;;;;11.10;10.80;;;9.70;99.90;;;;;;5041326;28;20239;-87
2022/04/24 04:30:41;;;;;;;10.83;10.53;;;9.70;99.90;;;;;;5041764;28;20228;-86
2022/04/24 04:35:55;;;;;;;11.47;11.07;;;9.80;99.90;;;;;;5049043;28;20227;-85
2022/04/24 04:38:28;;;;;;;11.23;10.93;;;9.80;99.90;;;;;;5055560;28;20239;-86
2022/04/24 04:41:02;;;;;;;10.97;10.67;;;9.70;99.90;;;;;;5055970;28;20266;-83
2022/04/24 04:43:30;;;;;;;11.07;10.77;;;9.80;99.90;;;;;;5054474;28;20239;-86
2022/04/24 04:46:00;;;;;;;11.40;11.00;;;9.70;99.90;;;;;;5044687;28;20322;-86
2022/04/24 04:48:29;;;;;;;11.23;10.90;;;9.80;99.90;;;;;;5042639;28;20232;-86
2022/04/24 04:50:59;;;;;;;11.17;10.87;;;9.80;99.90;;;;;;5041476;28;20231;-85
2022/04/24 04:53:28;;;;;;;11.60;11.20;;;9.80;99.90;;;;;;5041152;28;20235;-86
2022/04/24 04:56:06;;;;;;;11.67;11.27;;;9.80;99.90;;;;;;5040931;28;20324;-86
2022/04/24 04:58:36;;;;;;;11.83;11.43;;;9.80;99.90;;;;;;5040713;28;20270;-86
2022/04/24 05:01:05;;;;;;;12.20;11.80;;;9.80;99.90;;;;;;5040195;28;20614;-86
2022/04/24 05:03:35;;;;;;;12.33;11.93;;;9.80;99.90;;;;;;5040363;28;20294;-86
2022/04/24 05:06:04;;;;;;;12.13;11.73;;;9.70;99.90;;;;;;5041217;28;20228;-85
2022/04/24 05:08:33;;;;;;;12.30;11.90;;;9.70;99.90;;;;;;5040802;28;20290;-85
2022/04/24 05:11:12;;;;;;;12.13;11.73;;;9.70;99.90;;;;;;5040816;28;20262;-85
2022/04/24 05:13:41;;;;;;;12.10;11.70;;;9.70;99.90;;;;;;5049721;28;20219;-82
2022/04/24 05:16:10;;;;;;;11.97;11.57;;;9.70;99.90;;;;;;5059445;28;20239;-83
2022/04/24 05:21:20;;;;;;;11.87;11.47;;;9.80;99.90;;;;;;5040884;28;20250;-85
2022/04/24 05:23:49;;;;;;;12.20;11.80;;;9.80;99.90;;;;;;5055779;28;20211;-82
2022/04/24 05:26:28;;;;;;;12.10;11.70;;;9.90;99.90;;;;;;5055364;28;20250;-85
2022/04/24 05:28:58;;;;;;;12.17;11.77;;;9.90;99.90;;;;;;5052111;28;20231;-84
2022/04/24 05:31:30;;;;;;;12.13;11.73;;;9.90;99.90;;;;;;5043299;28;20293;-85
2022/04/24 05:33:58;;;;;;;12.13;11.73;;;10.00;99.90;;;;;;5040487;28;20732;-86
2022/04/24 05:36:26;;;;;;;12.20;11.80;;;10.10;99.90;;;;;;5040438;28;20282;-85
2022/04/24 05:38:55;;;;;;;12.30;11.90;;;10.10;99.90;;;;;;5040812;28;20318;-85
2022/04/24 05:41:33;;;;;;;12.40;12.00;;;10.10;99.90;;;;;;5040420;28;20239;-86
2022/04/24 05:44:03;;;;;;;12.20;11.80;;;10.20;99.90;;;;;;5040296;28;20235;-86
2022/04/24 05:46:32;;;;;;;12.00;11.60;;;10.20;99.90;;;;;;5039856;28;20664;-86
2022/04/24 05:49:02;;;;;;;11.90;11.50;;;10.30;99.90;;;;;;5040232;28;20228;-86
2022/04/24 05:51:33;;;;;;;12.20;11.80;;;10.30;99.90;;;;;;5040489;28;20370;-85
2022/04/24 05:54:01;;;;;;;11.57;11.17;;;10.30;99.90;;;;;;5040384;28;20283;-86
2022/04/24 05:56:33;;;;;;;12.03;11.63;;;10.40;99.90;;;;;;5039957;28;20262;-85
2022/04/24 05:59:01;;;;;;;12.07;11.67;;;10.40;99.90;;;;;;5040246;28;20274;-85
2022/04/24 06:01:29;;;;;;;12.10;11.70;;;10.40;99.90;;;;;;5040409;28;20231;-84
2022/04/24 06:03:59;;;;;;;12.13;11.73;;;10.40;99.90;;;;;;5040853;28;20237;-85
2022/04/24 06:06:30;;;;;;;12.20;11.80;;;10.40;99.90;;;;;;5040320;28;20220;-86
2022/04/24 06:08:58;;;;;;;11.80;11.40;;;10.40;99.90;;;;;;5040309;28;20259;-85
2022/04/24 06:11:26;;;;;;;12.10;11.70;;;10.40;99.90;;;;;;5039799;28;20231;-86
2022/04/24 06:16:44;;;;;;;11.90;11.50;;;10.50;99.90;;;;;;5039530;28;20232;-86
2022/04/24 06:19:13;;;;;;;11.83;11.43;;;10.50;99.90;;;;;;5040041;28;20234;-86
2022/04/24 06:21:42;;;;;;;11.87;11.47;;;10.50;99.90;;;;;;5039606;28;20309;-86
2022/04/24 06:24:11;;;;;;;12.10;11.70;;;10.40;99.90;;;;;;5039570;28;20235;-86
2022/04/24 06:26:43;;;;;;;12.00;11.60;;;10.40;99.90;;;;;;5040161;28;20265;-86
2022/04/24 06:29:13;;;;;;;11.93;11.53;;;10.40;99.90;;;;;;5041014;28;20254;-85
2022/04/24 06:31:41;;;;;;;11.77;11.37;;;10.50;99.90;;;;;;5040841;28;20242;-86
2022/04/24 06:34:10;;;;;;;11.90;11.50;;;10.50;99.90;;;;;;5040337;28;20238;-86
2022/04/24 06:36:39;;;;;;;12.00;11.60;;;10.60;99.90;;;;;;5039917;28;20224;-86
2022/04/24 06:39:09;;;;;;;12.10;11.70;;;10.60;99.90;;;;;;5041121;28;20227;-86
2022/04/24 06:41:38;;;;;;;11.80;11.40;;;10.50;99.90;;;;;;5040874;28;20239;-84
2022/04/24 06:44:07;;;;;;;12.27;11.87;;;10.50;99.90;;;;;;5040415;28;20230;-86
2022/04/24 06:46:39;;;;;;;11.87;11.47;;;10.50;99.90;;;;;;5042492;28;20290;-85
2022/04/24 06:49:07;;;;;;;11.90;11.50;;;10.40;99.90;;;;;;5044412;28;20293;-85
2022/04/24 06:51:35;;;;;;;11.90;11.50;;;10.40;99.90;;;;;;5044055;28;20238;-86
2022/04/24 06:54:04;;;;;;;12.00;11.60;;;10.30;99.90;;;;;;5044599;28;20661;-85
2022/04/24 06:56:32;;;;;;;12.17;11.77;;;10.20;99.90;;;;;;5065961;22;20289;-81
2022/04/24 06:59:00;;;;;;;12.10;11.70;;;10.20;99.90;;;;;;5042544;28;20243;-80
2022/04/24 07:01:27;;;;;;;11.87;11.47;;;10.10;99.90;;;;;;5043128;28;20317;-80
2022/04/24 07:03:56;;;;;;;12.00;11.60;;;10.10;99.90;;;;;;5042316;28;20235;-80
2022/04/24 07:06:24;;;;;;;12.00;11.60;;;10.00;99.90;;;;;;5041450;28;20243;-79
2022/04/24 07:08:52;;;;;;;11.80;11.40;;;9.90;99.90;;;;;;5033432;28;20294;-79
2022/04/24 07:11:21;;;;;;;11.90;11.50;;;9.90;99.90;;;;;;5040565;28;20259;-80
2022/04/24 07:13:49;;;;;;;11.93;11.53;;;9.80;99.90;;;;;;5040010;28;20286;-79
2022/04/24 07:16:16;;;;;;;11.97;11.57;;;9.70;99.90;;;;;;5039756;28;20769;-79
2022/04/24 07:18:44;;;;;;;11.80;11.40;;;9.70;99.90;;;;;;5039253;28;20275;-79
2022/04/24 07:21:13;;;;;;;11.90;11.50;;;9.60;99.90;;;;;;5039243;28;20231;-79
2022/04/24 07:23:41;;;;;;;11.90;11.50;;;9.50;99.90;;;;;;5039021;28;20289;-78
2022/04/24 07:26:09;;;;;;;11.60;11.20;;;9.40;99.90;;;;;;5038583;28;20227;-79
2022/04/24 07:28:36;;;;;;;11.40;11.00;;;9.30;99.90;;;;;;5038104;28;20240;-78
2022/04/24 07:31:06;;;;;;;11.83;11.43;;;9.20;99.90;;;;;;5037805;28;20224;-78
2022/04/24 07:33:34;;;;;;;11.50;11.10;;;9.10;99.90;;;;;;5037839;28;20227;-78
2022/04/24 07:36:04;;;;;;;11.60;11.20;;;9.00;99.90;;;;;;5038564;28;20294;-77
2022/04/24 07:38:33;;;;;;;11.10;10.70;;;8.90;99.90;;;;;;5037713;28;20238;-78
2022/04/24 07:41:03;;;;;;;11.20;10.80;;;8.90;99.90;;;;;;5038710;28;20307;-78
2022/04/24 07:43:30;;;;;;;11.17;10.77;;;8.90;99.90;;;;;;5048740;28;20239;-78
2022/04/24 07:45:58;;;;;;;11.47;11.07;;;8.80;99.90;;;;;;5047859;28;20228;-78
2022/04/24 07:48:27;;;;;;;11.67;11.27;;;8.80;99.90;;;;;;5042097;28;20266;-78
2022/04/24 07:50:55;;;;;;;11.40;11.00;;;8.70;99.90;;;;;;5037881;28;20227;-78
2022/04/24 07:53:23;;;;;;;11.43;11.03;;;8.60;99.90;;;;;;5037626;28;20259;-79
2022/04/24 07:55:52;;;;;;;12.57;12.17;;;8.60;99.90;;;;;;5037708;28;20227;-78
2022/04/24 07:58:20;;;;;;;11.87;11.47;;;8.50;99.90;;;;;;5036746;28;20269;-78
2022/04/24 08:00:48;;;;;;;11.23;10.83;;;8.40;99.90;;;;;;5038494;28;20240;-79
2022/04/24 08:03:19;;;;;;;11.50;11.10;;;8.30;99.90;;;;;;5038304;28;20290;-78
2022/04/24 08:05:49;;;;;;;11.50;11.10;;;8.30;99.90;;;;;;5038788;28;20235;-79
2022/04/24 08:08:19;;;;;;;11.37;10.97;;;8.20;99.90;;;;;;5038691;28;20240;-79
2022/04/24 08:10:49;;;;;;;11.03;10.63;;;8.20;99.90;;;;;;5038108;28;20285;-80
2022/04/24 08:13:19;;;;;;;11.07;10.67;;;8.20;99.90;;;;;;5039247;28;20236;-79
2022/04/24 08:15:47;;;;;;;10.83;10.43;;;8.20;99.90;;;;;;5037587;28;20228;-79
2022/04/24 08:18:16;;;;;;;11.10;10.70;;;8.20;99.90;;;;;;5037570;28;20293;-79
2022/04/24 08:20:45;;;;;;;10.83;10.50;;;8.20;99.90;;;;;;5038555;28;20235;-79
2022/04/24 08:23:16;;;;;;;10.93;10.53;;;8.20;99.90;;;;;;5037928;28;20235;-79
2022/04/24 08:25:44;;;;;;;10.87;10.50;;;8.20;99.90;;;;;;5038032;28;20649;-79
2022/04/24 08:28:13;;;;;;;10.80;10.50;;;8.20;99.90;;;;;;5038081;28;20235;-79
2022/04/24 08:30:44;;;;;;;10.80;10.40;;;8.20;99.90;;;;;;5037867;28;20294;-79
2022/04/24 08:33:13;;;;;;;10.67;10.37;;;8.30;99.90;;;;;;5037546;28;20228;-79
2022/04/24 08:35:42;;;;;;;10.50;10.20;;;8.20;99.90;;;;;;5039066;28;20256;-79
2022/04/24 08:38:10;;;;;;;11.00;10.60;;;8.20;99.90;;;;;;5038190;28;20239;-79
2022/04/24 08:40:37;;;;;;;10.63;10.27;;;8.30;99.90;;;;;;5038283;28;20274;-78
2022/04/24 08:43:05;;;;;;;10.90;10.50;;;8.30;99.90;;;;;;5038259;28;20235;-80
2022/04/24 08:45:34;;;;;;;10.60;10.20;;;8.40;99.90;;;;;;5038324;28;20243;-79
2022/04/24 08:48:04;;;;;;;10.97;10.57;;;8.40;99.90;;;;;;5037407;28;20231;-78
2022/04/24 08:50:34;;;;;;;10.73;10.33;;;8.40;99.90;;;;;;5037658;28;20262;-80
2022/04/24 08:53:02;;;;;;;10.87;10.47;;;8.40;99.90;;;;;;5037228;28;20231;-80
2022/04/24 08:55:32;;;;;;;10.40;10.10;;;8.40;99.90;;;;;;5038373;28;20267;-80
2022/04/24 08:58:00;;;;;;;10.20;9.90;;;8.30;99.90;;;;;;5038076;28;20290;-80
2022/04/24 09:00:29;;;;;;;10.50;10.20;;;8.30;99.90;;;;;;5040251;28;20239;-79
2022/04/24 09:02:58;;;;;;;10.67;10.37;;;8.30;99.90;;;;;;5044153;28;20231;-80
2022/04/24 09:05:30;;;;;;;10.50;10.20;;;8.20;99.90;;;;;;5044584;28;20219;-79
2022/04/24 09:08:07;;;;;;;10.50;10.20;;;8.20;99.90;;;;;;5038109;28;20263;-80
2022/04/24 09:10:53;;;;;;;10.40;10.10;;;8.10;99.90;;;;;;5039939;28;20231;-80
2022/04/24 09:13:28;;;;;;;10.30;10.00;;;8.10;99.90;;;;;;5041604;28;20278;-81
2022/04/24 09:15:57;;;;;;;10.33;10.03;;;8.10;99.90;;;;;;5038606;28;20297;-81
2022/04/24 09:18:25;;;;;;;10.80;10.50;;;8.10;99.90;;;;;;5037941;28;20286;-81
2022/04/24 09:20:57;;;;;;;10.90;10.50;;;8.10;99.90;;;;;;5037981;28;20238;-81
2022/04/24 09:23:36;;;;;;;10.37;10.07;;;8.20;99.90;;;;;;5038519;28;20238;-80
2022/04/24 09:26:04;;;;;;;10.60;10.30;;;8.20;99.90;;;;;;5040599;28;20219;-79
2022/04/24 09:28:40;;;;;;;10.27;9.97;;;8.30;99.90;;;;;;5049120;28;20263;-80
2022/04/24 09:31:08;;;;;;;10.30;10.00;;;8.50;99.90;;;;;;5055689;28;20231;-80
2022/04/24 09:33:38;;;;;;;11.00;10.60;;;8.60;99.90;;;;;;5046691;28;20679;-80
2022/04/24 09:36:08;;;;;;;10.50;10.20;;;8.80;99.90;;;;;;5046375;28;20355;-79
2022/04/24 09:38:42;;;;;;;10.60;10.30;;;9.00;99.90;;;;;;5039566;28;20247;-80
2022/04/24 09:41:17;;;;;;;10.40;10.10;;;9.20;99.90;;;;;;5035846;28;20281;-78
2022/04/24 09:43:45;;;;;;;9.83;9.53;;;9.40;99.90;;;;;;5037664;28;20262;-80
2022/04/24 09:46:13;;;;;;;9.60;9.30;;;9.60;99.90;;;;;;5038066;28;20230;-80
2022/04/24 09:48:41;;;;;;;9.40;9.10;;;9.80;99.90;;;;;;5038757;28;20239;-80
2022/04/24 09:51:11;;;;;;;9.60;9.30;;;10.00;99.90;;;;;;5038555;28;20235;-80
2022/04/24 09:53:43;;;;;;;10.17;9.87;;;10.10;99.90;;;;;;5039002;28;20305;-80
2022/04/24 09:56:12;;;;;;;9.93;9.63;;;10.30;99.90;;;;;;5037807;28;20626;-80
2022/04/24 09:58:40;;;;;;;9.50;9.20;;;10.40;99.90;;;;;;5038983;28;20239;-81
2022/04/24 10:01:09;;;;;;;9.70;9.40;;;10.50;99.90;;;;;;5040523;28;20286;-81
2022/04/24 10:03:38;;;;;;;9.27;8.97;;;10.60;99.90;;;;;;5040343;28;20272;-81
2022/04/24 10:06:06;;;;;;;9.60;9.30;;;10.70;99.90;;;;;;5041039;28;20406;-81
2022/04/24 10:08:36;;;;;;;9.20;8.90;;;10.80;99.90;;;;;;5039893;28;20327;-81
2022/04/24 10:11:05;;;;;;;8.90;8.70;;;10.80;99.90;;;;;;5039534;28;20306;-81
2022/04/24 10:13:37;;;;;;;9.20;8.90;;;10.90;99.90;;;;;;5039617;28;20227;-81
2022/04/24 10:16:24;;;;;;;9.20;8.90;;;11.00;99.90;;;;;;5039065;28;20287;-80
2022/04/24 10:18:58;;;;;;;8.80;8.60;;;11.10;99.90;;;;;;5039247;28;20235;-81
2022/04/24 10:21:56;;;;;;;8.80;8.60;;;11.30;99.90;;;;;;5041764;28;20230;-80
2022/04/24 10:24:41;;;;;;;9.00;8.80;;;11.50;99.90;;;;;;5040321;28;20231;-80
2022/04/24 10:27:11;;;;;;;9.20;8.90;;;11.60;99.90;;;;;;5041339;28;20230;-80
2022/04/24 10:29:51;;;;;;;9.30;9.00;;;11.80;99.90;;;;;;5040302;28;20231;-79
2022/04/24 10:32:30;;;;;;;9.30;9.00;;;11.50;99.90;;;;;;5019862;28;20212;-80
2022/04/24 10:34:58;;;;;;;9.03;8.83;;;11.20;99.90;;;;;;5019646;28;20224;-79
2022/04/24 10:37:31;;;;;;;9.37;9.07;;;11.20;99.90;;;;;;5019807;28;20298;-80
2022/04/24 10:40:03;;;;;;;9.00;8.80;;;11.30;99.90;;;;;;5020203;28;20235;-80
2022/04/24 10:42:33;;;;;;;9.30;9.00;;;11.40;99.90;;;;;;5019803;28;20228;-80
2022/04/24 10:45:08;;;;;;;9.27;8.97;;;11.40;99.90;;;;;;5022871;28;20236;-79
2022/04/24 10:47:55;;;;;;;9.60;9.30;;;11.30;99.90;;;;;;5022572;28;20232;-79
2022/04/24 10:50:23;;;;;;;9.70;9.40;;;11.10;99.90;;;;;;5022603;28;20232;-80
2022/04/24 10:52:53;;;;;;;9.53;9.23;;;11.00;99.90;;;;;;5021509;28;20236;-79
2022/04/24 10:55:30;;;;;;;9.70;9.40;;;10.70;99.90;;;;;;5023773;28;20271;-80
2022/04/24 10:58:00;;;;;;;9.67;9.37;;;10.50;99.90;;;;;;5021951;28;20315;-80
2022/04/24 11:00:34;;;;;;;9.90;9.60;;;10.40;99.90;;;;;;5022405;28;20228;-79
2022/04/24 11:03:13;;;;;;;9.80;9.50;;;10.30;99.90;;;;;;5022581;28;20223;-80
2022/04/24 11:05:43;;;;;;;10.13;9.83;;;10.10;99.90;;;;;;5024632;28;20231;-79
2022/04/24 11:08:18;;;;;;;10.10;9.80;;;10.00;99.90;;;;;;5042201;28;20227;-80
2022/04/24 11:10:49;;;;;;;9.80;9.50;;;9.90;99.90;;;;;;5044048;28;20258;-81
2022/04/24 11:13:19;;;;;;;9.83;9.53;;;9.90;99.90;;;;;;5042458;28;20235;-81
2022/04/24 11:15:49;;;;;;;9.70;9.40;;;10.00;99.90;;;;;;5040717;28;20263;-79
2022/04/24 11:18:23;;;;;;;10.00;9.70;;;10.00;99.90;;;;;;5038827;28;20259;-79
2022/04/24 11:20:57;;;;;;;9.90;9.60;;;9.90;99.90;;;;;;5041370;28;20237;-79
2022/04/24 11:23:28;;;;;;;9.93;9.63;;;9.90;99.90;;;;;;5040241;28;20286;-79
2022/04/24 11:25:59;;;;;;;10.20;9.90;;;9.80;99.90;;;;;;5040116;28;20250;-79
2022/04/24 11:28:38;;;;;;;10.00;9.70;;;9.70;99.90;;;;;;5047553;28;20223;-81
2022/04/24 11:31:10;;;;;;;10.17;9.87;;;9.50;99.90;;;;;;5044017;28;20330;-79
2022/04/24 11:33:40;;;;;;;10.50;10.20;;;9.50;99.90;;;;;;5049095;28;20207;-80
2022/04/24 11:36:12;;;;;;;10.50;10.20;;;9.40;99.90;;;;;;5059848;28;20233;-82
2022/04/24 11:38:40;;;;;;;10.07;9.77;;;9.50;99.90;;;;;;5059221;28;20215;-81
2022/04/24 11:41:09;;;;;;;10.33;10.03;;;9.50;99.90;;;;;;5061434;28;20215;-82
2022/04/24 11:43:41;;;;;;;10.30;10.00;;;9.50;99.90;;;;;;5060113;28;20282;-80
2022/04/24 11:51:46;;;;;;;10.17;9.87;;;9.50;99.90;;;;;;5049846;28;20224;-81
2022/04/24 11:54:14;;;;;;;10.13;9.83;;;9.50;99.90;;;;;;5039791;28;20239;-79
2022/04/24 11:56:44;;;;;;;10.60;10.30;;;9.50;99.90;;;;;;5039058;28;20232;-79
2022/04/24 11:59:19;;;;;;;10.10;9.80;;;9.50;99.90;;;;;;5037619;28;20298;-78
2022/04/24 12:01:55;;;;;;;10.30;10.00;;;9.50;99.90;;;;;;5041938;28;20317;-78
2022/04/24 12:04:28;;;;;;;10.30;10.00;;;9.50;99.90;;;;;;5039031;28;20230;-77
2022/04/24 12:07:03;;;;;;;10.30;10.00;;;9.50;99.90;;;;;;5034796;28;20242;-79
2022/04/24 12:09:31;;;;;;;10.50;10.20;;;9.60;99.90;;;;;;5034498;28;20293;-78
2022/04/24 12:12:12;;;;;;;10.40;10.10;;;9.60;99.90;;;;;;5036755;28;20243;-79
2022/04/24 12:14:41;;;;;;;10.37;10.07;;;9.60;99.90;;;;;;5038011;28;20242;-78
2022/04/24 12:17:10;;;;;;;10.37;10.07;;;9.60;99.90;;;;;;5038630;28;20243;-79
2022/04/24 12:19:41;;;;;;;10.70;10.40;;;9.70;99.90;;;;;;5045214;28;20262;-79
2022/04/24 12:22:11;;;;;;;10.17;9.87;;;9.70;99.90;;;;;;5058358;28;20231;-79
2022/04/24 12:24:46;;;;;;;10.17;9.87;;;9.70;99.90;;;;;;5060015;28;20227;-79
2022/04/24 12:27:17;;;;;;;10.00;9.70;;;9.70;99.90;;;;;;5059886;28;20296;-79
2022/04/24 12:29:49;;;;;;;10.27;9.97;;;9.70;99.90;;;;;;5058786;28;20288;-79
2022/04/24 12:32:17;;;;;;;10.30;10.00;;;9.70;99.90;;;;;;5057628;28;20686;-79
2022/04/24 12:34:47;;;;;;;10.50;10.20;;;9.70;99.90;;;;;;5057191;28;20235;-80
2022/04/24 12:37:16;;;;;;;10.43;10.13;;;9.70;99.90;;;;;;5056779;28;20247;-79
2022/04/24 12:39:53;;;;;;;10.30;10.00;;;9.70;99.90;;;;;;5056540;28;20258;-79
2022/04/24 12:42:23;;;;;;;10.63;10.33;;;9.70;99.90;;;;;;5058788;28;20234;-81
2022/04/24 12:44:51;;;;;;;10.50;10.20;;;9.70;99.90;;;;;;5059813;28;20245;-81
2022/04/24 12:47:20;;;;;;;10.40;10.10;;;9.70;99.90;;;;;;5055485;28;20241;-80
2022/04/24 12:49:48;;;;;;;10.27;9.97;;;9.70;99.90;;;;;;5039465;28;20212;-81
2022/04/24 12:52:20;;;;;;;10.33;10.03;;;9.70;99.90;;;;;;5039865;28;20239;-82
2022/04/24 12:54:48;;;;;;;10.23;9.93;;;9.70;99.90;;;;;;5040416;28;20227;-82
2022/04/24 13:08:30;;;;;;;10.00;9.70;;;9.70;99.90;;;;;;5023158;28;20243;-87
2022/04/24 13:11:17;;;;;;;10.07;9.77;;;9.70;99.90;;;;;;5023748;28;20227;-90
2022/04/24 13:13:46;;;;;;;9.77;9.47;;;9.80;99.90;;;;;;5023013;28;20228;-89
2022/04/24 13:19:24;;;;;;;10.40;10.10;;;9.70;99.90;;;;;;5022433;28;20232;-88
2022/04/24 13:21:55;;;;;;;10.20;9.90;;;9.70;99.90;;;;;;5021932;28;20224;-88
2022/04/24 13:24:42;;;;;;;10.30;10.00;;;9.60;99.90;;;;;;5023364;28;20228;-89
2022/04/24 13:40:22;;;;;;;10.70;10.40;;;9.30;99.90;;;;;;5021116;28;20228;-88
2022/04/24 13:43:02;;;;;;;10.73;10.43;;;9.20;99.90;;;;;;5023152;28;20239;-86
2022/04/24 13:45:37;;;;;;;10.50;10.20;;;9.20;99.90;;;;;;5022716;28;20239;-89